Time;durP1;ratioP1;P1;durP2;ratioP2;P2;SDS_P1;SDS_P2;PMS_P1;PMS_P2;Temp;Humidity;BMP_temperature;BMP_pressure;BME280_temperature;BME280_humidity;BME280_pressure;Samples;Min_cycle;Max_cycle;Signal;HPM_P1;HPM_P2
2022/05/12 00:00:14;;;;;;;3.00;0.80;;;;;;;;;;4980882;28;20774;-17
2022/05/12 00:02:41;;;;;;;5.03;1.10;;;;;;;;;;4987971;28;20292;-17
2022/05/12 00:05:09;;;;;;;3.47;1.00;;;;;;;;;;4983700;28;21058;-17
2022/05/12 00:07:38;;;;;;;3.97;1.13;;;;;;;;;;4983707;28;20232;-18
2022/05/12 00:10:08;;;;;;;2.33;0.90;;;;;;;;;;4980678;28;20232;-18
2022/05/12 00:12:35;;;;;;;3.67;0.90;;;;;;;;;;4983591;28;20265;-17
2022/05/12 00:15:02;;;;;;;3.25;0.88;;;;;;;;;;4980469;28;20233;-17
2022/05/12 00:17:30;;;;;;;3.33;1.02;;;;;;;;;;4984157;28;20236;-17
2022/05/12 00:19:57;;;;;;;3.58;0.95;;;;;;;;;;4987097;28;20250;-17
2022/05/12 00:22:24;;;;;;;7.82;1.45;;;;;;;;;;4982404;28;20623;-17
2022/05/12 00:24:53;;;;;;;9.65;1.60;;;;;;;;;;4988710;28;20238;-18
2022/05/12 00:27:20;;;;;;;4.43;1.10;;;;;;;;;;4981973;28;20303;-17
2022/05/12 00:29:48;;;;;;;3.47;1.00;;;;;;;;;;4979474;28;20232;-18
2022/05/12 00:32:15;;;;;;;4.95;1.10;;;;;;;;;;4982578;28;20276;-17
2022/05/12 00:34:42;;;;;;;2.47;1.02;;;;;;;;;;4983065;28;20704;-17
2022/05/12 00:37:10;;;;;;;3.42;1.00;;;;;;;;;;4979235;28;20232;-17
2022/05/12 00:39:37;;;;;;;4.30;0.98;;;;;;;;;;4983359;28;20239;-17
2022/05/12 00:42:06;;;;;;;1.73;0.70;;;;;;;;;;4979959;28;20241;-17
2022/05/12 00:44:33;;;;;;;2.92;0.77;;;;;;;;;;4982869;28;20248;-18
2022/05/12 00:47:01;;;;;;;3.08;0.93;;;;;;;;;;4982742;28;20233;-18
2022/05/12 00:49:29;;;;;;;1.88;0.98;;;;;;;;;;4979900;28;20237;-17
2022/05/12 00:51:57;;;;;;;1.92;0.80;;;;;;;;;;4982600;28;20228;-17
2022/05/12 00:54:25;;;;;;;4.05;0.80;;;;;;;;;;4980662;28;20229;-17
2022/05/12 00:56:53;;;;;;;3.20;1.10;;;;;;;;;;4982587;28;20225;-17
2022/05/12 00:59:23;;;;;;;4.18;1.00;;;;;;;;;;4980591;28;20327;-18
2022/05/12 01:01:50;;;;;;;4.60;1.02;;;;;;;;;;4983094;28;20232;-17
2022/05/12 01:04:18;;;;;;;3.83;0.80;;;;;;;;;;4981119;28;20336;-17
2022/05/12 01:06:45;;;;;;;2.72;1.08;;;;;;;;;;4982417;28;20236;-17
2022/05/12 01:09:13;;;;;;;4.65;1.20;;;;;;;;;;4979264;28;20982;-17
2022/05/12 01:11:40;;;;;;;4.40;1.05;;;;;;;;;;4981844;28;20588;-17
2022/05/12 01:14:08;;;;;;;3.15;1.00;;;;;;;;;;4988770;28;20348;-17
2022/05/12 01:16:37;;;;;;;3.67;0.95;;;;;;;;;;4985510;28;20991;-17
2022/05/12 01:19:05;;;;;;;2.17;0.82;;;;;;;;;;4989161;28;20291;-17
2022/05/12 01:21:32;;;;;;;1.63;0.68;;;;;;;;;;4982929;28;20240;-18
2022/05/12 01:24:01;;;;;;;4.40;1.00;;;;;;;;;;4980138;28;20738;-18
2022/05/12 01:26:29;;;;;;;3.55;0.98;;;;;;;;;;4979939;28;20231;-18
2022/05/12 01:28:56;;;;;;;3.00;0.95;;;;;;;;;;4982021;28;20775;-17
2022/05/12 01:31:23;;;;;;;2.72;0.80;;;;;;;;;;4979341;28;20240;-17
2022/05/12 01:33:51;;;;;;;4.50;0.90;;;;;;;;;;4983953;28;20228;-17
2022/05/12 01:36:19;;;;;;;5.05;1.20;;;;;;;;;;4980614;28;20228;-17
2022/05/12 01:38:47;;;;;;;4.00;1.00;;;;;;;;;;4980911;28;20240;-17
2022/05/12 01:41:15;;;;;;;2.95;0.75;;;;;;;;;;4979879;28;20235;-17
2022/05/12 01:43:43;;;;;;;2.58;0.93;;;;;;;;;;4981443;28;20786;-17
2022/05/12 01:46:10;;;;;;;3.97;0.70;;;;;;;;;;4975402;28;20225;-17
2022/05/12 01:48:37;;;;;;;4.65;0.80;;;;;;;;;;4983058;28;20232;-18
2022/05/12 01:51:05;;;;;;;2.58;0.90;;;;;;;;;;4978900;28;20229;-17
2022/05/12 01:53:32;;;;;;;3.08;0.95;;;;;;;;;;4985510;28;20244;-17
2022/05/12 01:56:00;;;;;;;5.25;1.00;;;;;;;;;;4982225;28;20259;-17
2022/05/12 01:58:27;;;;;;;1.90;0.70;;;;;;;;;;4976943;28;20248;-18
2022/05/12 02:00:54;;;;;;;2.78;1.10;;;;;;;;;;4981464;28;20217;-18
2022/05/12 02:03:22;;;;;;;1.90;0.82;;;;;;;;;;4980846;28;20240;-17
2022/05/12 02:05:49;;;;;;;3.65;0.90;;;;;;;;;;4981928;28;20233;-17
2022/05/12 02:08:17;;;;;;;3.55;1.13;;;;;;;;;;4980566;28;20239;-17
2022/05/12 02:10:45;;;;;;;2.15;1.00;;;;;;;;;;4979848;28;20237;-17
2022/05/12 02:13:13;;;;;;;2.33;0.90;;;;;;;;;;4981617;28;20933;-17
2022/05/12 02:15:42;;;;;;;1.75;0.90;;;;;;;;;;4983952;28;20239;-17
2022/05/12 02:18:09;;;;;;;4.93;1.10;;;;;;;;;;4987829;28;20236;-17
2022/05/12 02:23:06;;;;;;;3.33;1.08;;;;;;;;;;5004014;28;20294;-15
2022/05/12 02:25:33;;;;;;;3.40;0.90;;;;;;;;;;5009798;28;20242;-15
2022/05/12 02:28:01;;;;;;;2.70;1.05;;;;;;;;;;5005687;28;20239;-15
2022/05/12 02:30:29;;;;;;;2.00;0.75;;;;;;;;;;5003017;28;20234;-15
2022/05/12 02:32:57;;;;;;;2.47;0.80;;;;;;;;;;5001890;28;20590;-15
2022/05/12 02:35:25;;;;;;;4.93;1.00;;;;;;;;;;4999393;28;20232;-14
2022/05/12 02:37:52;;;;;;;3.83;1.05;;;;;;;;;;5001188;28;20242;-14
2022/05/12 02:40:20;;;;;;;3.67;0.70;;;;;;;;;;5001368;28;20298;-15
2022/05/12 02:42:47;;;;;;;2.75;0.93;;;;;;;;;;4997145;28;20994;-14
2022/05/12 02:45:14;;;;;;;2.40;0.65;;;;;;;;;;4998963;28;20349;-14
2022/05/12 02:47:42;;;;;;;3.28;1.00;;;;;;;;;;4998388;28;20232;-15
2022/05/12 02:50:11;;;;;;;2.70;0.90;;;;;;;;;;4999573;28;20319;-14
2022/05/12 02:52:39;;;;;;;3.60;0.80;;;;;;;;;;5000789;28;20732;-15
2022/05/12 02:55:07;;;;;;;3.28;1.02;;;;;;;;;;4998391;28;20271;-15
2022/05/12 02:57:35;;;;;;;5.10;1.17;;;;;;;;;;5002531;28;20767;-15
2022/05/12 03:00:02;;;;;;;3.28;0.77;;;;;;;;;;5004829;28;20238;-15
2022/05/12 03:02:29;;;;;;;3.08;0.90;;;;;;;;;;5001961;28;20775;-14
2022/05/12 03:04:57;;;;;;;2.53;0.77;;;;;;;;;;5000565;28;21242;-15
2022/05/12 03:07:25;;;;;;;1.92;0.70;;;;;;;;;;4999266;28;20230;-15
2022/05/12 03:09:53;;;;;;;2.22;0.77;;;;;;;;;;4999884;28;20232;-15
2022/05/12 03:12:20;;;;;;;4.47;0.85;;;;;;;;;;5007374;28;20247;-15
2022/05/12 03:14:48;;;;;;;3.35;1.15;;;;;;;;;;5002989;28;20250;-15
2022/05/12 03:17:15;;;;;;;2.13;0.70;;;;;;;;;;5005825;28;21077;-15
2022/05/12 03:19:43;;;;;;;4.30;0.90;;;;;;;;;;5001611;28;20232;-15
2022/05/12 03:22:10;;;;;;;3.38;1.27;;;;;;;;;;5003098;28;20729;-15
2022/05/12 03:24:39;;;;;;;2.65;0.90;;;;;;;;;;5000545;28;20244;-15
2022/05/12 03:27:06;;;;;;;3.17;0.98;;;;;;;;;;5004096;28;20303;-14
2022/05/12 03:29:33;;;;;;;2.95;0.88;;;;;;;;;;5004116;28;20231;-15
2022/05/12 03:32:01;;;;;;;3.42;1.08;;;;;;;;;;5003341;28;20243;-14
2022/05/12 03:34:30;;;;;;;1.88;0.60;;;;;;;;;;5003668;28;20305;-15
2022/05/12 03:36:58;;;;;;;2.58;0.73;;;;;;;;;;5001244;28;20800;-15
2022/05/12 03:39:25;;;;;;;2.53;0.93;;;;;;;;;;5003490;28;20236;-15
2022/05/12 03:41:54;;;;;;;2.25;0.90;;;;;;;;;;5001768;28;20297;-15
2022/05/12 03:47:06;;;;;;;1.80;0.80;;;;;;;;;;5010222;28;20974;-15
2022/05/12 03:49:33;;;;;;;2.63;0.90;;;;;;;;;;5010502;28;20234;-15
2022/05/12 03:52:01;;;;;;;4.55;1.15;;;;;;;;;;5011797;28;20236;-15
2022/05/12 03:54:28;;;;;;;1.52;0.70;;;;;;;;;;5006702;28;20236;-15
2022/05/12 03:56:57;;;;;;;2.72;0.90;;;;;;;;;;4999740;28;20604;-15
2022/05/12 03:59:24;;;;;;;3.38;1.08;;;;;;;;;;5003501;28;20246;-15
2022/05/12 04:01:51;;;;;;;2.17;0.63;;;;;;;;;;5005742;28;20234;-15
2022/05/12 04:04:19;;;;;;;5.03;1.10;;;;;;;;;;5006519;28;20328;-15
2022/05/12 04:06:46;;;;;;;2.90;0.90;;;;;;;;;;4999674;28;20298;-15
2022/05/12 04:09:13;;;;;;;2.15;0.82;;;;;;;;;;5004719;28;20657;-15
2022/05/12 04:11:41;;;;;;;3.15;1.00;;;;;;;;;;4997965;28;20236;-15
2022/05/12 04:14:09;;;;;;;3.58;0.82;;;;;;;;;;5001375;28;20243;-15
2022/05/12 04:16:38;;;;;;;2.92;0.82;;;;;;;;;;4999786;28;20738;-15
2022/05/12 04:19:06;;;;;;;3.15;0.93;;;;;;;;;;5009469;28;20270;-15
2022/05/12 04:21:34;;;;;;;2.38;0.98;;;;;;;;;;5005952;28;20246;-15
2022/05/12 04:24:03;;;;;;;1.65;0.80;;;;;;;;;;5009791;28;21954;-15
2022/05/12 04:26:32;;;;;;;4.28;1.08;;;;;;;;;;5005050;28;20239;-15
2022/05/12 04:28:59;;;;;;;2.38;0.60;;;;;;;;;;5009578;28;20243;-15
2022/05/12 04:31:28;;;;;;;4.30;1.10;;;;;;;;;;5006541;28;20236;-15
2022/05/12 04:36:40;;;;;;;1.67;0.57;;;;;;;;;;5003944;28;20709;-15
2022/05/12 04:39:08;;;;;;;4.93;1.00;;;;;;;;;;5003036;28;20246;-15
2022/05/12 04:41:35;;;;;;;2.92;0.85;;;;;;;;;;4999858;28;20719;-15
2022/05/12 04:44:04;;;;;;;2.80;0.90;;;;;;;;;;4999979;28;20235;-15
2022/05/12 04:46:34;;;;;;;3.17;0.73;;;;;;;;;;5000271;28;20228;-15
2022/05/12 04:49:01;;;;;;;4.15;0.98;;;;;;;;;;5003184;28;20232;-15
2022/05/12 04:51:29;;;;;;;4.05;1.02;;;;;;;;;;5003372;28;20246;-15
2022/05/12 04:53:56;;;;;;;4.30;0.75;;;;;;;;;;5001752;28;20232;-15
2022/05/12 04:56:24;;;;;;;3.42;0.88;;;;;;;;;;5001599;28;20245;-15
2022/05/12 04:58:51;;;;;;;1.38;0.70;;;;;;;;;;5000969;28;20239;-15
2022/05/12 05:01:18;;;;;;;1.95;0.98;;;;;;;;;;5002784;28;20231;-15
2022/05/12 05:03:47;;;;;;;3.10;0.88;;;;;;;;;;5000700;28;20324;-15
2022/05/12 05:06:14;;;;;;;2.58;0.93;;;;;;;;;;4998810;28;20437;-15
2022/05/12 05:08:42;;;;;;;3.30;1.00;;;;;;;;;;5002267;28;20231;-15
2022/05/12 05:11:09;;;;;;;2.17;0.68;;;;;;;;;;4999039;28;21037;-15
2022/05/12 05:13:36;;;;;;;2.53;0.80;;;;;;;;;;5002797;28;20323;-15
2022/05/12 05:16:04;;;;;;;4.07;1.45;;;;;;;;;;4999163;28;20242;-15
2022/05/12 05:18:32;;;;;;;2.05;0.80;;;;;;;;;;5003278;28;20233;-15
2022/05/12 05:21:01;;;;;;;2.75;0.90;;;;;;;;;;5001820;28;20238;-15
2022/05/12 05:23:28;;;;;;;3.00;1.00;;;;;;;;;;5004859;28;20223;-15
2022/05/12 05:25:56;;;;;;;3.97;1.17;;;;;;;;;;4998870;28;20242;-15
2022/05/12 05:28:23;;;;;;;3.42;0.90;;;;;;;;;;4999881;28;20980;-15
2022/05/12 05:30:50;;;;;;;3.65;1.00;;;;;;;;;;5002004;28;20880;-15
2022/05/12 05:33:19;;;;;;;3.42;0.98;;;;;;;;;;5001325;28;20231;-15
2022/05/12 05:35:46;;;;;;;3.65;1.33;;;;;;;;;;5002167;28;20341;-15
2022/05/12 05:38:15;;;;;;;2.13;1.20;;;;;;;;;;5001569;28;20242;-15
2022/05/12 05:40:42;;;;;;;3.03;1.05;;;;;;;;;;4999287;28;20236;-15
2022/05/12 05:43:13;;;;;;;4.28;1.10;;;;;;;;;;5001060;28;20322;-15
2022/05/12 05:45:41;;;;;;;3.10;1.10;;;;;;;;;;5005989;28;20239;-15
2022/05/12 05:48:09;;;;;;;3.60;1.15;;;;;;;;;;4999048;28;20314;-15
2022/05/12 05:53:26;;;;;;;3.25;1.10;;;;;;;;;;4998704;28;20232;-15
2022/05/12 05:55:53;;;;;;;3.03;1.13;;;;;;;;;;5004403;28;20235;-15
2022/05/12 05:58:21;;;;;;;3.72;0.95;;;;;;;;;;5000175;28;20266;-15
2022/05/12 06:00:48;;;;;;;4.30;1.50;;;;;;;;;;5002285;28;20585;-15
2022/05/12 06:03:16;;;;;;;4.57;1.33;;;;;;;;;;4999785;28;20719;-15
2022/05/12 06:05:43;;;;;;;3.30;1.15;;;;;;;;;;5000940;28;20239;-15
2022/05/12 06:08:11;;;;;;;3.42;1.33;;;;;;;;;;5001653;28;20647;-15
2022/05/12 06:10:40;;;;;;;3.05;1.48;;;;;;;;;;4998605;28;20266;-15
2022/05/12 06:13:08;;;;;;;4.40;1.38;;;;;;;;;;5002205;28;20231;-15
2022/05/12 06:15:36;;;;;;;2.60;1.30;;;;;;;;;;5001783;28;20239;-15
2022/05/12 06:18:06;;;;;;;2.72;1.20;;;;;;;;;;5001529;28;20235;-15
2022/05/12 06:20:39;;;;;;;2.97;1.25;;;;;;;;;;4998351;28;20321;-15
2022/05/12 06:23:08;;;;;;;3.05;1.25;;;;;;;;;;5000543;28;20328;-15
2022/05/12 06:25:35;;;;;;;3.85;1.42;;;;;;;;;;4998073;28;20232;-15
2022/05/12 06:28:04;;;;;;;2.70;1.30;;;;;;;;;;4998313;28;20238;-15
2022/05/12 06:30:32;;;;;;;2.92;1.20;;;;;;;;;;5004685;28;20228;-15
2022/05/12 06:33:00;;;;;;;3.47;1.35;;;;;;;;;;4998615;28;20220;-15
2022/05/12 06:35:27;;;;;;;6.30;1.38;;;;;;;;;;5000997;28;20261;-15
2022/05/12 06:37:55;;;;;;;4.50;1.67;;;;;;;;;;4999044;28;20244;-15
2022/05/12 06:40:22;;;;;;;4.95;1.63;;;;;;;;;;5001799;28;20323;-15
2022/05/12 06:42:50;;;;;;;3.03;1.25;;;;;;;;;;4999918;28;20229;-15
2022/05/12 06:45:20;;;;;;;3.88;1.30;;;;;;;;;;5002881;28;20263;-15
2022/05/12 06:47:50;;;;;;;2.65;1.55;;;;;;;;;;5002419;28;20427;-15
2022/05/12 06:50:17;;;;;;;3.47;1.17;;;;;;;;;;5002879;28;20235;-15
2022/05/12 06:52:44;;;;;;;4.07;1.05;;;;;;;;;;5009561;28;20240;-15
2022/05/12 06:55:12;;;;;;;3.30;1.20;;;;;;;;;;5001897;28;20236;-15
2022/05/12 06:57:39;;;;;;;3.70;1.30;;;;;;;;;;5001642;28;20299;-15
2022/05/12 07:00:08;;;;;;;6.53;1.30;;;;;;;;;;5004711;28;20235;-15
2022/05/12 07:02:39;;;;;;;4.50;1.45;;;;;;;;;;5005244;28;20232;-15
2022/05/12 07:05:08;;;;;;;3.35;1.20;;;;;;;;;;5001140;28;21105;-15
2022/05/12 07:07:36;;;;;;;2.45;1.13;;;;;;;;;;5001192;28;20232;-15
2022/05/12 07:10:03;;;;;;;2.85;1.08;;;;;;;;;;5001750;28;20228;-15
2022/05/12 07:12:31;;;;;;;4.60;1.42;;;;;;;;;;5004103;28;20240;-15
2022/05/12 07:14:58;;;;;;;5.38;1.20;;;;;;;;;;5004619;28;20983;-15
2022/05/12 07:17:26;;;;;;;3.75;1.20;;;;;;;;;;5002404;28;20997;-15
2022/05/12 07:26:34;;;;;;;3.70;1.33;;;;;;;;;;5003244;28;20240;-15
2022/05/12 07:28:14;;;;;;;2.42;1.38;;;;;;;;;;5001777;28;20700;-15
2022/05/12 07:33:35;;;;;;;2.88;1.10;;;;;;;;;;5000594;28;20247;-15
2022/05/12 07:36:04;;;;;;;3.00;1.40;;;;;;;;;;5007075;28;20239;-15
2022/05/12 07:38:32;;;;;;;3.90;1.20;;;;;;;;;;5000280;28;20234;-15
2022/05/12 07:40:59;;;;;;;7.10;1.42;;;;;;;;;;5001121;28;20258;-15
2022/05/12 07:43:27;;;;;;;4.60;1.17;;;;;;;;;;5003281;28;20228;-15
2022/05/12 07:45:54;;;;;;;6.55;1.52;;;;;;;;;;5003691;28;20245;-15
2022/05/12 07:48:22;;;;;;;6.43;1.35;;;;;;;;;;5002011;28;20649;-15
2022/05/12 07:50:49;;;;;;;3.97;1.60;;;;;;;;;;5001323;28;20280;-15
2022/05/12 07:53:18;;;;;;;5.68;1.35;;;;;;;;;;5007153;28;20242;-15
2022/05/12 07:55:45;;;;;;;10.95;1.60;;;;;;;;;;5005368;28;20324;-15
2022/05/12 07:58:13;;;;;;;3.70;1.10;;;;;;;;;;5002977;28;20957;-15
2022/05/12 08:00:41;;;;;;;9.02;1.50;;;;;;;;;;5000169;28;20240;-15
2022/05/12 08:03:08;;;;;;;4.45;1.40;;;;;;;;;;5004188;28;20245;-15
2022/05/12 08:05:36;;;;;;;4.90;1.30;;;;;;;;;;5000787;28;20719;-15
2022/05/12 08:08:04;;;;;;;5.63;1.75;;;;;;;;;;5007091;28;20232;-15
2022/05/12 08:10:33;;;;;;;4.85;1.33;;;;;;;;;;5000628;28;20752;-15
2022/05/12 08:13:00;;;;;;;8.55;1.33;;;;;;;;;;5003550;28;20240;-15
2022/05/12 08:15:28;;;;;;;4.05;1.52;;;;;;;;;;5002675;28;20237;-15
2022/05/12 08:17:56;;;;;;;4.78;1.40;;;;;;;;;;4999469;28;20763;-15
2022/05/12 08:20:24;;;;;;;3.08;0.88;;;;;;;;;;5008542;28;20623;-15
2022/05/12 08:22:51;;;;;;;2.90;1.17;;;;;;;;;;5001441;28;21090;-15
2022/05/12 08:25:19;;;;;;;4.30;1.27;;;;;;;;;;5002014;28;20228;-15
2022/05/12 08:27:48;;;;;;;2.47;1.15;;;;;;;;;;5000001;28;20231;-15
2022/05/12 08:30:17;;;;;;;7.72;1.60;;;;;;;;;;5004239;28;20238;-15
2022/05/12 08:32:45;;;;;;;3.08;1.10;;;;;;;;;;5002859;28;20240;-15
2022/05/12 08:35:12;;;;;;;3.47;1.42;;;;;;;;;;5000590;28;20232;-15
2022/05/12 08:37:39;;;;;;;3.83;1.42;;;;;;;;;;5002538;28;20232;-15
2022/05/12 08:40:08;;;;;;;2.53;1.38;;;;;;;;;;5003740;28;20231;-15
2022/05/12 08:42:36;;;;;;;6.07;1.33;;;;;;;;;;5018400;28;20977;-15
2022/05/12 08:45:06;;;;;;;5.07;1.30;;;;;;;;;;4999862;28;20691;-15
2022/05/12 08:47:34;;;;;;;2.88;1.45;;;;;;;;;;5000423;28;20232;-15
2022/05/12 08:50:02;;;;;;;3.20;1.30;;;;;;;;;;5003039;28;20234;-15
2022/05/12 08:52:31;;;;;;;4.28;1.27;;;;;;;;;;5003157;28;20236;-15
2022/05/12 08:55:00;;;;;;;9.35;1.80;;;;;;;;;;5002587;28;20247;-15
2022/05/12 08:57:34;;;;;;;8.20;1.40;;;;;;;;;;5002811;28;20239;-15
2022/05/12 09:00:05;;;;;;;3.72;1.55;;;;;;;;;;4997766;28;20239;-15
2022/05/12 09:02:36;;;;;;;5.38;1.30;;;;;;;;;;5001913;28;20836;-15
2022/05/12 09:05:06;;;;;;;6.25;1.40;;;;;;;;;;4995289;28;20236;-16
2022/05/12 09:07:36;;;;;;;3.40;1.40;;;;;;;;;;5000671;28;20235;-15
2022/05/12 09:10:07;;;;;;;5.57;1.20;;;;;;;;;;4997456;28;20265;-15
2022/05/12 09:12:36;;;;;;;5.45;1.08;;;;;;;;;;4998629;28;20236;-15
2022/05/12 09:15:04;;;;;;;4.85;1.48;;;;;;;;;;5006914;28;20239;-16
2022/05/12 09:17:36;;;;;;;4.15;1.65;;;;;;;;;;5007463;28;20247;-15
2022/05/12 09:20:06;;;;;;;4.95;1.10;;;;;;;;;;5006406;28;20904;-15
2022/05/12 09:22:34;;;;;;;5.45;1.40;;;;;;;;;;4999523;28;20648;-15
2022/05/12 09:25:02;;;;;;;6.53;1.27;;;;;;;;;;5008482;28;20699;-15
2022/05/12 09:27:30;;;;;;;5.95;1.30;;;;;;;;;;5003789;28;20237;-15
2022/05/12 09:29:57;;;;;;;5.20;1.38;;;;;;;;;;5009155;28;20240;-15
2022/05/12 09:32:25;;;;;;;6.45;1.52;;;;;;;;;;5008702;28;20228;-15
2022/05/12 09:35:10;;;;;;;7.47;1.55;;;;;;;;;;5005942;28;21035;-15
2022/05/12 09:37:40;;;;;;;2.22;1.05;;;;;;;;;;5005283;28;20682;-15
2022/05/12 09:40:15;;;;;;;7.57;1.52;;;;;;;;;;5003699;28;20415;-15
2022/05/12 09:42:44;;;;;;;6.38;1.63;;;;;;;;;;5007318;28;20239;-15
2022/05/12 09:45:19;;;;;;;5.95;1.70;;;;;;;;;;5003431;28;20250;-15
2022/05/12 09:47:46;;;;;;;8.15;1.50;;;;;;;;;;5007667;28;20378;-15
2022/05/12 09:50:20;;;;;;;7.95;1.50;;;;;;;;;;5003661;28;20239;-15
2022/05/12 09:52:57;;;;;;;4.75;1.02;;;;;;;;;;5005667;28;20318;-15
2022/05/12 09:55:25;;;;;;;7.70;2.08;;;;;;;;;;4999477;28;20231;-15
2022/05/12 09:57:53;;;;;;;5.82;1.17;;;;;;;;;;5000232;28;20236;-15
2022/05/12 10:00:25;;;;;;;6.97;1.40;;;;;;;;;;4997743;28;20343;-15
2022/05/12 10:08:27;;;;;;;6.00;1.67;;;;;;;;;;5001449;28;20227;-15
2022/05/12 10:10:56;;;;;;;6.30;1.55;;;;;;;;;;5000637;28;20234;-15
2022/05/12 10:13:25;;;;;;;6.93;1.70;;;;;;;;;;4992029;28;20239;-15
2022/05/12 10:15:53;;;;;;;7.65;1.60;;;;;;;;;;5004526;28;20239;-15
2022/05/12 10:18:27;;;;;;;7.18;1.45;;;;;;;;;;4998988;28;20243;-15
2022/05/12 10:20:57;;;;;;;8.70;1.55;;;;;;;;;;5005105;28;21088;-17
2022/05/12 10:23:25;;;;;;;5.35;1.15;;;;;;;;;;5002892;28;20239;-15
2022/05/12 10:25:58;;;;;;;3.92;1.10;;;;;;;;;;5001146;28;20235;-15
2022/05/12 10:28:28;;;;;;;3.33;1.08;;;;;;;;;;5003154;28;20699;-16
2022/05/12 10:30:59;;;;;;;2.05;1.10;;;;;;;;;;5001750;28;20231;-16
2022/05/12 10:33:29;;;;;;;4.05;1.60;;;;;;;;;;5001353;28;20239;-16
2022/05/12 10:36:04;;;;;;;5.55;1.20;;;;;;;;;;5003341;28;20236;-16
2022/05/12 10:38:34;;;;;;;8.63;1.33;;;;;;;;;;5001225;28;20572;-16
2022/05/12 10:41:03;;;;;;;2.20;0.90;;;;;;;;;;5001812;28;20243;-15
2022/05/12 10:43:46;;;;;;;3.05;1.08;;;;;;;;;;5005101;28;20331;-16
2022/05/12 10:46:14;;;;;;;2.42;1.15;;;;;;;;;;5001745;28;20644;-15
2022/05/12 10:48:45;;;;;;;6.07;1.70;;;;;;;;;;5001943;28;20243;-15
2022/05/12 10:51:17;;;;;;;7.15;1.20;;;;;;;;;;5004517;28;20238;-15
2022/05/12 10:53:48;;;;;;;2.47;0.93;;;;;;;;;;5004456;28;20223;-16
2022/05/12 10:56:18;;;;;;;3.85;1.05;;;;;;;;;;5002176;28;20319;-15
2022/05/12 10:58:46;;;;;;;3.65;1.23;;;;;;;;;;5003439;28;20286;-16
2022/05/12 11:01:15;;;;;;;8.13;1.35;;;;;;;;;;5004733;28;20235;-16
2022/05/12 11:03:44;;;;;;;2.15;1.08;;;;;;;;;;5005120;28;20238;-16
2022/05/12 11:06:14;;;;;;;3.17;1.02;;;;;;;;;;5003914;28;20651;-16
2022/05/12 11:08:43;;;;;;;3.35;0.90;;;;;;;;;;5001657;28;20295;-16
2022/05/12 11:11:12;;;;;;;6.43;1.30;;;;;;;;;;5003781;28;20326;-16
2022/05/12 11:13:40;;;;;;;2.70;1.00;;;;;;;;;;5001164;28;20239;-16
2022/05/12 11:16:09;;;;;;;4.78;1.27;;;;;;;;;;5006663;28;20247;-16
2022/05/12 11:18:38;;;;;;;3.80;1.48;;;;;;;;;;5003929;28;20239;-16
2022/05/12 11:21:12;;;;;;;1.60;0.65;;;;;;;;;;5000306;28;20258;-16
2022/05/12 11:23:42;;;;;;;2.50;1.05;;;;;;;;;;5001177;28;20225;-16
2022/05/12 11:26:12;;;;;;;2.58;0.90;;;;;;;;;;5003134;28;20224;-16
2022/05/12 11:31:26;;;;;;;2.92;0.82;;;;;;;;;;5003375;28;20220;-16
2022/05/12 11:33:56;;;;;;;2.70;1.00;;;;;;;;;;5001657;28;20238;-16
2022/05/12 11:36:36;;;;;;;2.60;1.00;;;;;;;;;;5002505;28;20240;-16
2022/05/12 11:39:20;;;;;;;3.00;1.10;;;;;;;;;;5000281;28;20251;-16
2022/05/12 11:41:48;;;;;;;3.28;0.90;;;;;;;;;;5001343;28;20699;-16
2022/05/12 11:44:26;;;;;;;6.00;1.10;;;;;;;;;;5003028;28;20245;-16
2022/05/12 11:46:58;;;;;;;4.05;1.30;;;;;;;;;;5003881;28;21084;-16
2022/05/12 11:49:37;;;;;;;2.65;0.82;;;;;;;;;;5003742;28;20674;-15
2022/05/12 11:52:09;;;;;;;3.20;0.90;;;;;;;;;;5000462;28;20235;-15
2022/05/12 11:54:37;;;;;;;4.43;1.13;;;;;;;;;;5000558;28;20229;-16
2022/05/12 11:57:06;;;;;;;3.97;1.00;;;;;;;;;;4999894;28;20239;-15
2022/05/12 11:59:46;;;;;;;4.88;1.05;;;;;;;;;;5003608;28;20247;-16
2022/05/12 12:02:33;;;;;;;3.03;0.95;;;;;;;;;;5000268;28;20711;-16
2022/05/12 12:05:00;;;;;;;3.65;1.25;;;;;;;;;;5003326;28;21108;-15
2022/05/12 12:07:54;;;;;;;3.05;0.88;;;;;;;;;;5001199;28;20981;-16
2022/05/12 12:10:35;;;;;;;4.43;1.23;;;;;;;;;;5005201;28;20231;-15
2022/05/12 12:13:05;;;;;;;2.55;0.93;;;;;;;;;;5001100;28;20236;-16
2022/05/12 12:15:56;;;;;;;3.22;1.10;;;;;;;;;;5003487;28;20239;-16
2022/05/12 12:18:41;;;;;;;2.95;0.98;;;;;;;;;;5000596;28;21095;-16
2022/05/12 12:21:24;;;;;;;1.63;0.80;;;;;;;;;;5002568;28;20235;-16
2022/05/12 12:23:57;;;;;;;3.78;1.02;;;;;;;;;;4999029;28;20378;-16
2022/05/12 12:26:26;;;;;;;2.47;0.80;;;;;;;;;;5000394;28;20242;-16
2022/05/12 12:28:56;;;;;;;3.38;1.00;;;;;;;;;;5001937;28;20240;-15
2022/05/12 12:31:25;;;;;;;5.25;0.80;;;;;;;;;;5002427;28;20230;-16
2022/05/12 12:34:03;;;;;;;2.42;0.90;;;;;;;;;;5004945;28;20231;-16
2022/05/12 12:36:48;;;;;;;4.65;0.95;;;;;;;;;;5002785;28;20239;-16
2022/05/12 12:39:29;;;;;;;5.72;0.85;;;;;;;;;;4993008;28;20254;-16
2022/05/12 12:42:03;;;;;;;2.53;0.80;;;;;;;;;;5000277;28;20231;-16
2022/05/12 12:44:32;;;;;;;4.45;1.05;;;;;;;;;;5002176;28;20355;-16
2022/05/12 12:47:11;;;;;;;8.20;1.10;;;;;;;;;;5003067;28;20236;-16
2022/05/12 12:49:47;;;;;;;5.97;1.35;;;;;;;;;;5003621;28;20242;-16
2022/05/12 12:52:15;;;;;;;4.47;1.02;;;;;;;;;;5000567;28;20232;-16
2022/05/12 12:57:28;;;;;;;1.40;0.80;;;;;;;;;;5002208;28;20223;-16
2022/05/12 12:59:57;;;;;;;4.28;1.10;;;;;;;;;;5002166;28;20248;-16
2022/05/12 13:02:29;;;;;;;6.80;0.75;;;;;;;;;;5003529;28;20238;-16
2022/05/12 13:05:05;;;;;;;5.10;0.95;;;;;;;;;;5189652;27;20660;-15
2022/05/12 13:07:34;;;;;;;2.75;0.95;;;;;;;;;;5183834;27;20268;-15
2022/05/12 13:10:02;;;;;;;5.72;1.17;;;;;;;;;;5185286;27;20225;-16
2022/05/12 13:12:29;;;;;;;3.50;1.30;;;;;;;;;;5189990;27;20696;-15
2022/05/12 13:15:00;;;;;;;4.57;0.90;;;;;;;;;;5189039;27;20225;-14
2022/05/12 13:17:28;;;;;;;2.90;1.00;;;;;;;;;;5190403;27;20343;-15
2022/05/12 13:19:57;;;;;;;4.05;1.30;;;;;;;;;;5189152;27;20236;-15
2022/05/12 13:22:26;;;;;;;4.47;0.98;;;;;;;;;;5183365;27;20244;-13
2022/05/12 13:24:53;;;;;;;1.65;0.70;;;;;;;;;;5180713;27;20240;-15
2022/05/12 13:27:22;;;;;;;5.97;0.93;;;;;;;;;;5177123;27;20253;-15
2022/05/12 13:29:50;;;;;;;2.72;0.82;;;;;;;;;;5179829;27;20229;-15
2022/05/12 13:32:33;;;;;;;6.32;0.82;;;;;;;;;;5175052;27;20222;-15
2022/05/12 13:35:04;;;;;;;9.40;0.95;;;;;;;;;;5179081;27;20238;-14
2022/05/12 13:37:32;;;;;;;4.82;0.90;;;;;;;;;;5174822;27;20693;-15
2022/05/12 13:40:01;;;;;;;3.20;0.82;;;;;;;;;;5177102;27;20234;-15
2022/05/12 13:42:30;;;;;;;3.03;0.90;;;;;;;;;;5178495;27;20240;-13
2022/05/12 13:44:58;;;;;;;2.30;0.85;;;;;;;;;;5180855;27;20325;-15
2022/05/12 13:47:29;;;;;;;3.88;1.15;;;;;;;;;;5179265;27;20728;-15
2022/05/12 13:49:56;;;;;;;2.22;0.93;;;;;;;;;;5178852;27;20225;-15
2022/05/12 13:52:24;;;;;;;2.47;0.98;;;;;;;;;;5178019;27;20237;-14
2022/05/12 13:55:06;;;;;;;2.83;0.70;;;;;;;;;;5179183;27;20329;-15
2022/05/12 13:57:35;;;;;;;5.72;1.08;;;;;;;;;;5177192;27;20370;-15
2022/05/12 14:00:13;;;;;;;6.95;1.25;;;;;;;;;;5173408;27;20234;-16
2022/05/12 14:02:41;;;;;;;5.82;0.80;;;;;;;;;;5169982;27;20230;-15
2022/05/12 14:05:10;;;;;;;4.07;0.93;;;;;;;;;;5173589;27;20708;-15
2022/05/12 14:07:38;;;;;;;3.88;0.88;;;;;;;;;;5179639;27;20227;-15
2022/05/12 14:10:14;;;;;;;4.70;1.02;;;;;;;;;;5176803;27;20230;-15
2022/05/12 14:21:15;;;;;;;2.85;0.80;;;;;;;;;;5162588;27;20249;-15
2022/05/12 14:23:42;;;;;;;2.55;0.70;;;;;;;;;;5167124;27;20235;-15
2022/05/12 14:26:11;;;;;;;2.33;0.93;;;;;;;;;;5166166;27;20871;-16
2022/05/12 14:28:38;;;;;;;4.68;0.88;;;;;;;;;;5167609;27;20223;-15
2022/05/12 14:31:05;;;;;;;3.60;0.80;;;;;;;;;;5168451;27;20226;-16
2022/05/12 14:33:33;;;;;;;3.67;0.85;;;;;;;;;;5163825;27;20258;-15
2022/05/12 14:36:00;;;;;;;2.90;0.90;;;;;;;;;;5166880;27;20857;-16
2022/05/12 14:38:28;;;;;;;1.88;0.85;;;;;;;;;;5162747;27;20696;-15
2022/05/12 14:40:55;;;;;;;3.03;0.80;;;;;;;;;;5166852;27;20266;-15
2022/05/12 14:43:24;;;;;;;3.47;0.82;;;;;;;;;;5164307;27;20860;-16
2022/05/12 14:45:51;;;;;;;2.20;0.70;;;;;;;;;;5166586;27;20238;-16
2022/05/12 14:48:19;;;;;;;4.10;0.60;;;;;;;;;;5165624;27;20315;-16
2022/05/12 14:50:46;;;;;;;3.05;0.65;;;;;;;;;;5168433;27;20229;-16
2022/05/12 14:53:14;;;;;;;2.38;0.60;;;;;;;;;;5164221;27;20231;-16
2022/05/12 14:55:41;;;;;;;3.75;0.75;;;;;;;;;;5162765;27;20269;-16
2022/05/12 14:58:10;;;;;;;1.70;0.70;;;;;;;;;;5166910;27;20238;-15
2022/05/12 15:00:38;;;;;;;2.50;0.70;;;;;;;;;;5167076;27;21005;-16
2022/05/12 15:03:06;;;;;;;3.85;0.80;;;;;;;;;;5163079;27;20269;-14
2022/05/12 15:05:33;;;;;;;4.25;0.80;;;;;;;;;;5163342;27;20233;-15
2022/05/12 15:08:01;;;;;;;1.58;0.57;;;;;;;;;;5170295;27;20668;-15
2022/05/12 15:10:29;;;;;;;1.70;0.70;;;;;;;;;;5163908;27;20222;-15
2022/05/12 15:12:56;;;;;;;2.53;0.73;;;;;;;;;;5164157;27;20227;-15
2022/05/12 15:15:24;;;;;;;2.05;0.55;;;;;;;;;;5165284;27;20696;-16
2022/05/12 15:17:52;;;;;;;2.60;0.77;;;;;;;;;;5164393;27;20234;-16
2022/05/12 15:20:21;;;;;;;4.43;0.88;;;;;;;;;;5163686;27;20237;-16
2022/05/12 15:22:49;;;;;;;1.35;0.80;;;;;;;;;;5162926;27;20665;-16
2022/05/12 15:25:16;;;;;;;1.88;0.70;;;;;;;;;;5163058;27;20334;-14
2022/05/12 15:27:44;;;;;;;2.33;0.50;;;;;;;;;;5165215;27;20268;-16
2022/05/12 15:30:12;;;;;;;3.42;0.80;;;;;;;;;;5163972;27;20222;-16
2022/05/12 15:32:41;;;;;;;3.75;0.90;;;;;;;;;;5162087;27;20230;-16